Time;durP1;ratioP1;P1;durP2;ratioP2;P2;SDS_P1;SDS_P2;PMS_P1;PMS_P2;Temp;Humidity;BMP_temperature;BMP_pressure;BME280_temperature;BME280_humidity;BME280_pressure;Samples;Min_cycle;Max_cycle;Signal;HPM_P1;HPM_P2
2022/01/27 00:05:01;;;;;;;37.67;16.80;;;6.60;98.00;;;;;;5051286;28;20036;-63
2022/01/27 00:07:27;;;;;;;36.05;15.73;;;6.60;98.00;;;;;;5064378;28;20498;-63
2022/01/27 00:12:30;;;;;;;36.80;18.55;;;6.50;98.10;;;;;;5056247;28;20064;-63
2022/01/27 00:15:08;;;;;;;35.20;16.23;;;6.60;98.10;;;;;;5050959;28;20053;-63
2022/01/27 00:17:38;;;;;;;36.17;16.83;;;6.60;98.20;;;;;;5068636;28;20029;-63
2022/01/27 00:20:05;;;;;;;34.47;16.90;;;6.60;98.20;;;;;;5070333;28;20044;-63
2022/01/27 00:22:30;;;;;;;32.83;14.82;;;6.60;98.30;;;;;;5055938;28;20048;-63
2022/01/27 00:24:56;;;;;;;35.47;17.10;;;6.60;98.30;;;;;;5050425;28;20465;-63
2022/01/27 00:27:21;;;;;;;29.77;14.40;;;6.60;98.30;;;;;;5050897;28;20028;-63
2022/01/27 00:29:47;;;;;;;31.67;16.67;;;6.60;98.40;;;;;;5051280;28;20039;-63
2022/01/27 00:32:12;;;;;;;31.50;17.35;;;6.60;98.40;;;;;;5067444;28;20491;-63
2022/01/27 00:34:38;;;;;;;33.60;15.70;;;6.60;98.50;;;;;;5070979;28;20045;-64
2022/01/27 00:37:04;;;;;;;33.22;15.85;;;6.60;98.50;;;;;;5053785;28;20040;-63
2022/01/27 00:39:29;;;;;;;31.92;16.15;;;6.60;98.50;;;;;;5051090;28;20029;-63
2022/01/27 00:41:55;;;;;;;33.72;16.73;;;6.60;98.50;;;;;;5050959;28;20032;-63
2022/01/27 00:44:21;;;;;;;31.38;14.70;;;6.60;98.50;;;;;;5050893;28;20033;-63
2022/01/27 00:46:46;;;;;;;32.10;16.45;;;6.60;98.40;;;;;;5050252;28;20028;-63
2022/01/27 00:49:12;;;;;;;28.48;14.13;;;6.60;98.40;;;;;;5070208;28;20127;-63
2022/01/27 00:51:40;;;;;;;28.55;12.85;;;6.60;98.40;;;;;;5058430;28;20028;-62
2022/01/27 00:54:20;;;;;;;29.23;14.95;;;6.70;98.50;;;;;;5050814;28;20041;-63
2022/01/27 00:56:53;;;;;;;29.38;14.07;;;6.70;98.40;;;;;;5050710;28;20479;-63
2022/01/27 00:59:31;;;;;;;31.88;14.25;;;6.70;98.40;;;;;;5050711;28;20052;-63
2022/01/27 01:02:12;;;;;;;27.58;13.73;;;6.60;98.40;;;;;;5063526;28;20045;-63
2022/01/27 01:04:42;;;;;;;27.23;13.80;;;6.60;98.40;;;;;;5069801;28;20040;-63
2022/01/27 01:07:09;;;;;;;29.38;13.77;;;6.60;98.30;;;;;;5068582;28;20495;-63
2022/01/27 01:10:34;;;;;;;28.75;14.02;;;6.60;98.40;;;;;;5070415;28;20636;-63
2022/01/27 01:15:31;;;;;;;27.70;13.75;;;6.60;98.40;;;;;;5067640;28;20064;-63
2022/01/27 01:20:51;;;;;;;26.85;13.90;;;6.60;98.40;;;;;;5064929;28;20056;-63
2022/01/27 01:31:43;;;;;;;25.40;12.87;;;6.60;98.50;;;;;;5063464;28;20025;-63
2022/01/27 01:34:22;;;;;;;27.13;13.02;;;6.60;98.50;;;;;;5052362;28;20291;-63
2022/01/27 01:36:55;;;;;;;24.63;12.80;;;6.60;98.50;;;;;;5056385;28;20037;-64
2022/01/27 01:39:29;;;;;;;24.10;12.02;;;6.60;98.40;;;;;;5053877;28;20219;-62
2022/01/27 01:41:56;;;;;;;23.00;11.70;;;6.60;98.40;;;;;;5040009;28;20033;-62
2022/01/27 01:44:22;;;;;;;26.65;11.90;;;6.70;98.70;;;;;;5054599;28;20333;-63
2022/01/27 01:46:48;;;;;;;25.02;12.90;;;6.70;98.50;;;;;;5066734;28;20107;-63
2022/01/27 01:49:14;;;;;;;24.60;11.27;;;6.70;98.50;;;;;;5068633;28;20121;-63
2022/01/27 01:51:40;;;;;;;21.75;11.40;;;6.70;98.40;;;;;;5056434;28;20025;-63
2022/01/27 01:54:07;;;;;;;23.80;11.88;;;6.70;98.40;;;;;;5053551;28;20041;-63
2022/01/27 01:56:35;;;;;;;24.38;11.75;;;6.70;98.40;;;;;;5063838;28;20017;-63
2022/01/27 01:59:01;;;;;;;23.80;11.40;;;6.80;98.40;;;;;;5054491;28;20078;-63
2022/01/27 02:01:26;;;;;;;21.50;10.27;;;6.80;98.40;;;;;;5053538;28;20045;-63
2022/01/27 02:03:52;;;;;;;20.98;10.45;;;6.80;98.40;;;;;;5054000;28;20049;-63
2022/01/27 02:06:30;;;;;;;21.70;11.55;;;6.80;98.30;;;;;;5062734;28;20430;-63
2022/01/27 02:09:23;;;;;;;20.92;10.75;;;6.80;98.40;;;;;;5063725;28;20439;-63
2022/01/27 02:19:59;;;;;;;22.98;11.55;;;6.90;98.20;;;;;;5070260;28;20098;-62
2022/01/27 02:22:25;;;;;;;21.08;11.68;;;6.90;98.20;;;;;;5070659;28;20039;-62
2022/01/27 02:24:52;;;;;;;22.33;12.57;;;6.90;98.20;;;;;;5054999;28;20028;-62
2022/01/27 02:27:19;;;;;;;18.00;10.50;;;6.90;98.10;;;;;;5071502;28;20036;-63
2022/01/27 02:29:45;;;;;;;18.88;10.93;;;6.90;98.10;;;;;;5072894;28;20025;-63
2022/01/27 02:32:13;;;;;;;20.90;11.48;;;6.90;98.10;;;;;;5059923;28;20136;-63
2022/01/27 02:34:40;;;;;;;21.35;10.95;;;6.90;98.10;;;;;;5053070;28;20033;-63
2022/01/27 02:37:06;;;;;;;17.00;9.40;;;6.90;98.10;;;;;;5067850;28;20051;-62
2022/01/27 02:39:31;;;;;;;19.08;9.88;;;6.80;98.10;;;;;;5052870;28;20032;-63
2022/01/27 02:42:04;;;;;;;18.52;10.30;;;6.90;98.10;;;;;;5066397;28;20123;-63
2022/01/27 02:44:46;;;;;;;20.55;10.00;;;6.90;98.10;;;;;;5054452;28;20033;-62
2022/01/27 02:47:12;;;;;;;18.10;10.80;;;6.90;98.10;;;;;;5071524;28;20029;-62
2022/01/27 02:49:37;;;;;;;18.52;10.05;;;6.90;98.10;;;;;;5070307;28;20051;-62
2022/01/27 02:52:03;;;;;;;19.23;9.90;;;6.90;98.10;;;;;;5071832;28;20021;-63
2022/01/27 02:54:29;;;;;;;18.38;11.02;;;6.90;98.00;;;;;;5053785;28;20041;-63
2022/01/27 02:56:54;;;;;;;18.67;10.23;;;6.90;98.00;;;;;;5066511;28;20675;-63
2022/01/27 02:59:21;;;;;;;22.55;11.60;;;6.90;98.00;;;;;;5072341;28;20044;-63
2022/01/27 03:01:48;;;;;;;19.90;10.43;;;6.90;98.00;;;;;;5060909;28;20116;-63
2022/01/27 03:04:14;;;;;;;19.27;9.82;;;6.90;98.00;;;;;;5053068;28;20044;-63
2022/01/27 03:06:40;;;;;;;19.00;10.63;;;6.90;98.00;;;;;;5069265;28;20020;-63
2022/01/27 03:09:06;;;;;;;21.27;11.23;;;6.90;98.00;;;;;;5069226;28;20067;-63
2022/01/27 03:11:38;;;;;;;18.63;10.23;;;6.90;98.00;;;;;;5054951;28;20020;-63
2022/01/27 03:14:04;;;;;;;18.50;10.85;;;7.00;98.00;;;;;;5071600;28;20032;-63
2022/01/27 03:16:30;;;;;;;17.95;10.57;;;6.90;97.90;;;;;;5070673;28;20082;-64
2022/01/27 03:18:55;;;;;;;19.15;9.07;;;7.00;98.00;;;;;;5054546;28;20032;-63
2022/01/27 03:21:21;;;;;;;20.95;11.30;;;7.00;98.00;;;;;;5050309;28;20500;-63
2022/01/27 03:23:47;;;;;;;19.80;10.75;;;6.90;97.90;;;;;;5052168;28;20029;-63
2022/01/27 03:26:13;;;;;;;20.98;10.20;;;7.00;97.90;;;;;;5053104;28;20025;-64
2022/01/27 03:28:38;;;;;;;19.88;10.95;;;7.00;97.90;;;;;;5067554;28;20391;-63
2022/01/27 03:31:04;;;;;;;19.17;10.77;;;7.00;97.90;;;;;;5070764;28;20039;-63
2022/01/27 03:33:29;;;;;;;20.05;11.57;;;7.00;97.90;;;;;;5070937;28;20036;-63
2022/01/27 03:35:55;;;;;;;17.23;9.57;;;7.00;97.90;;;;;;5071632;28;20063;-63
2022/01/27 03:38:20;;;;;;;22.25;12.65;;;7.00;98.00;;;;;;5059692;28;20517;-63
2022/01/27 03:40:46;;;;;;;19.48;12.75;;;7.10;97.90;;;;;;5051967;28;20025;-63
2022/01/27 03:43:12;;;;;;;20.88;12.50;;;7.00;97.90;;;;;;5060233;28;20025;-63
2022/01/27 03:45:38;;;;;;;22.45;12.95;;;7.00;97.90;;;;;;5052311;28;20037;-63
2022/01/27 03:48:04;;;;;;;32.70;17.00;;;7.00;97.90;;;;;;5069387;28;20040;-63
2022/01/27 03:50:30;;;;;;;27.40;15.63;;;7.00;98.00;;;;;;5071591;28;20024;-63
2022/01/27 03:52:55;;;;;;;23.08;13.35;;;7.00;97.90;;;;;;5068263;28;20568;-63
2022/01/27 03:55:21;;;;;;;22.55;12.88;;;7.10;98.00;;;;;;5069053;28;20025;-63
2022/01/27 03:57:46;;;;;;;23.23;12.18;;;7.00;98.00;;;;;;5063937;28;20048;-63
2022/01/27 04:00:12;;;;;;;21.95;10.85;;;7.00;97.90;;;;;;5051345;28;20530;-63
2022/01/27 04:02:49;;;;;;;17.30;9.75;;;7.00;98.00;;;;;;5051814;28;20032;-63
2022/01/27 04:05:14;;;;;;;20.83;11.30;;;7.10;98.00;;;;;;5052259;28;20040;-63
2022/01/27 04:07:42;;;;;;;19.23;9.82;;;7.10;98.00;;;;;;5055283;28;20595;-64
2022/01/27 04:10:08;;;;;;;16.85;9.82;;;7.00;97.90;;;;;;5051380;28;20040;-63
2022/01/27 04:12:33;;;;;;;20.65;9.98;;;7.00;98.00;;;;;;5065964;28;20103;-63
2022/01/27 04:14:59;;;;;;;16.85;10.07;;;7.00;98.00;;;;;;5070974;28;20033;-63
2022/01/27 04:17:24;;;;;;;17.50;9.63;;;7.00;98.00;;;;;;5063841;28;20372;-63
2022/01/27 04:19:50;;;;;;;17.15;10.10;;;7.00;98.10;;;;;;5071123;28;20031;-63
2022/01/27 04:22:15;;;;;;;15.10;9.07;;;7.00;98.10;;;;;;5047293;28;20431;-63
2022/01/27 04:24:41;;;;;;;17.20;9.45;;;7.10;98.30;;;;;;5071231;28;20037;-63
2022/01/27 04:27:16;;;;;;;17.52;9.23;;;7.10;98.10;;;;;;5061087;28;20472;-63
2022/01/27 04:29:41;;;;;;;14.52;9.00;;;7.10;98.10;;;;;;5064248;28;20040;-63
2022/01/27 04:32:09;;;;;;;18.33;9.95;;;7.10;98.10;;;;;;5069507;28;20475;-63
2022/01/27 04:34:37;;;;;;;15.52;9.02;;;7.10;98.10;;;;;;5059645;28;20106;-63
2022/01/27 04:37:03;;;;;;;13.68;8.45;;;7.10;98.00;;;;;;5057861;28;20029;-63
2022/01/27 04:39:40;;;;;;;14.07;8.38;;;7.10;98.00;;;;;;5070952;28;20039;-63
2022/01/27 04:42:16;;;;;;;14.65;8.68;;;7.10;97.90;;;;;;5052216;28;20016;-63
2022/01/27 04:44:50;;;;;;;14.95;8.40;;;7.10;97.90;;;;;;5070888;28;20365;-63
2022/01/27 04:47:27;;;;;;;13.85;8.27;;;7.00;97.80;;;;;;5069964;28;20548;-63
2022/01/27 04:49:52;;;;;;;12.27;7.43;;;7.00;97.80;;;;;;5064283;28;20380;-63
2022/01/27 04:52:18;;;;;;;13.93;7.60;;;7.00;97.80;;;;;;5060080;28;20024;-63
2022/01/27 04:54:58;;;;;;;13.50;7.85;;;7.00;97.90;;;;;;5070340;28;20033;-63
2022/01/27 04:57:25;;;;;;;14.45;7.90;;;6.90;97.80;;;;;;5068420;28;20021;-63
2022/01/27 04:59:51;;;;;;;11.65;7.03;;;7.00;97.80;;;;;;5069280;28;20400;-63
2022/01/27 05:02:30;;;;;;;11.18;7.22;;;7.00;97.80;;;;;;5067181;28;20041;-63
2022/01/27 05:04:56;;;;;;;11.63;7.25;;;7.00;97.70;;;;;;5061035;28;20379;-63
2022/01/27 05:07:22;;;;;;;11.68;7.28;;;6.90;97.60;;;;;;5068762;28;20032;-63
2022/01/27 05:09:54;;;;;;;12.57;7.13;;;6.90;97.70;;;;;;5070238;28;20032;-63
2022/01/27 05:12:32;;;;;;;12.43;7.13;;;7.00;97.70;;;;;;5054707;28;20029;-63
2022/01/27 05:14:59;;;;;;;11.43;6.78;;;6.90;97.60;;;;;;5060969;28;20448;-63
2022/01/27 05:17:25;;;;;;;11.48;7.18;;;7.00;97.60;;;;;;5071745;28;20025;-62
2022/01/27 05:19:51;;;;;;;10.95;7.07;;;7.00;97.60;;;;;;5074327;28;20024;-62
2022/01/27 05:22:16;;;;;;;10.10;7.45;;;7.00;97.60;;;;;;5072808;28;20033;-63
2022/01/27 05:24:42;;;;;;;10.45;7.25;;;7.00;97.50;;;;;;5073215;28;20028;-63
2022/01/27 05:27:07;;;;;;;11.45;7.55;;;7.00;97.40;;;;;;5072850;28;20040;-63
2022/01/27 05:29:33;;;;;;;12.57;6.97;;;7.00;97.40;;;;;;5057142;28;20392;-63
2022/01/27 05:31:58;;;;;;;10.85;6.68;;;7.00;97.20;;;;;;5036554;28;20029;-63
2022/01/27 05:34:24;;;;;;;10.32;6.82;;;7.00;97.30;;;;;;5054423;28;20488;-63
2022/01/27 05:36:49;;;;;;;9.70;6.22;;;7.00;97.20;;;;;;5058251;28;20012;-63
2022/01/27 05:39:15;;;;;;;9.23;6.55;;;6.90;97.20;;;;;;5054936;28;20437;-63
2022/01/27 05:41:42;;;;;;;12.95;7.45;;;7.00;97.20;;;;;;5037403;28;20025;-62
2022/01/27 05:44:07;;;;;;;13.35;7.68;;;7.00;97.20;;;;;;5065874;28;20025;-64
2022/01/27 05:46:33;;;;;;;10.82;7.25;;;7.00;97.20;;;;;;5072812;28;20078;-64
2022/01/27 05:48:58;;;;;;;13.73;7.15;;;7.00;97.10;;;;;;5073600;28;20035;-63
2022/01/27 05:51:24;;;;;;;11.85;7.75;;;7.00;97.10;;;;;;5070734;28;20025;-64
2022/01/27 05:53:49;;;;;;;10.43;7.00;;;7.00;97.10;;;;;;5057111;28;20052;-63
2022/01/27 05:56:14;;;;;;;13.70;7.82;;;7.00;97.10;;;;;;5054939;28;20017;-63
2022/01/27 05:58:40;;;;;;;11.48;7.13;;;7.10;97.10;;;;;;5066532;28;20032;-63
2022/01/27 06:01:06;;;;;;;16.30;7.57;;;7.00;97.00;;;;;;5039878;28;20091;-63
2022/01/27 06:03:31;;;;;;;12.75;7.57;;;7.10;97.00;;;;;;5047552;28;20112;-63
2022/01/27 06:05:57;;;;;;;13.35;8.70;;;7.00;96.90;;;;;;5034889;28;20087;-64
2022/01/27 06:08:22;;;;;;;13.90;8.25;;;7.00;96.90;;;;;;5046571;28;20461;-63
2022/01/27 06:10:50;;;;;;;13.18;8.20;;;6.90;96.90;;;;;;5045897;28;20480;-63
2022/01/27 06:13:15;;;;;;;13.68;8.55;;;7.00;97.00;;;;;;5052267;28;20033;-63
2022/01/27 06:15:41;;;;;;;13.73;8.80;;;6.90;97.10;;;;;;5052386;28;20036;-63
2022/01/27 06:18:06;;;;;;;14.48;8.13;;;6.90;97.10;;;;;;5050735;28;20110;-64
2022/01/27 06:20:33;;;;;;;15.45;9.02;;;7.00;97.20;;;;;;5033874;28;20616;-63
2022/01/27 06:22:58;;;;;;;14.00;9.30;;;6.90;97.20;;;;;;5046807;28;20025;-63
2022/01/27 06:25:25;;;;;;;14.93;10.00;;;6.90;97.20;;;;;;5049060;28;20036;-63
2022/01/27 06:27:51;;;;;;;16.08;9.93;;;6.90;97.30;;;;;;5037892;28;20025;-63
2022/01/27 06:30:16;;;;;;;16.33;9.43;;;6.90;97.30;;;;;;5033188;28;20435;-63
2022/01/27 06:32:42;;;;;;;15.30;8.98;;;6.90;97.30;;;;;;5039807;28;20028;-63
2022/01/27 06:35:08;;;;;;;16.10;9.98;;;6.90;97.30;;;;;;5033531;28;20046;-63
2022/01/27 06:37:34;;;;;;;15.30;9.65;;;6.90;97.30;;;;;;5044237;28;20495;-63
2022/01/27 06:39:59;;;;;;;18.52;10.10;;;6.90;97.30;;;;;;5053035;28;20029;-63
2022/01/27 06:42:26;;;;;;;16.08;10.23;;;6.90;97.30;;;;;;5051178;28;20447;-63
2022/01/27 06:44:53;;;;;;;18.13;9.70;;;6.90;97.30;;;;;;5052865;28;20063;-64
2022/01/27 06:47:18;;;;;;;19.40;10.98;;;6.90;97.30;;;;;;5045334;28;20056;-64
2022/01/27 06:49:44;;;;;;;15.20;9.25;;;6.90;97.30;;;;;;5037263;28;20048;-64
2022/01/27 06:52:10;;;;;;;18.88;10.65;;;6.90;97.30;;;;;;5049526;28;20033;-64
2022/01/27 06:54:35;;;;;;;18.27;10.57;;;7.00;97.40;;;;;;5052971;28;20040;-64
2022/01/27 06:57:01;;;;;;;16.42;10.75;;;6.90;97.40;;;;;;5037186;28;20021;-64
2022/01/27 06:59:27;;;;;;;16.63;10.57;;;7.00;97.50;;;;;;5035502;28;20045;-63
2022/01/27 07:01:52;;;;;;;18.55;10.77;;;6.90;97.50;;;;;;5054429;28;20075;-64
2022/01/27 07:04:18;;;;;;;16.77;10.68;;;7.00;97.50;;;;;;5056964;28;20029;-63
2022/01/27 07:06:44;;;;;;;18.10;10.18;;;7.00;97.50;;;;;;5052553;28;20085;-64
2022/01/27 07:09:09;;;;;;;19.83;12.70;;;7.00;97.40;;;;;;5055382;28;20614;-64
2022/01/27 07:11:35;;;;;;;18.77;11.57;;;7.00;97.40;;;;;;5070461;28;20112;-64
2022/01/27 07:14:00;;;;;;;21.98;13.05;;;7.00;97.40;;;;;;5072254;28;20240;-64
2022/01/27 07:16:26;;;;;;;23.35;13.20;;;7.00;97.50;;;;;;5051154;28;20021;-64
2022/01/27 07:18:52;;;;;;;21.50;12.80;;;7.00;97.40;;;;;;5051905;28;20032;-64
2022/01/27 07:21:19;;;;;;;23.10;13.35;;;7.00;97.40;;;;;;5053351;28;20040;-64
2022/01/27 07:23:45;;;;;;;22.60;13.13;;;7.10;97.40;;;;;;5065523;28;20028;-65
2022/01/27 07:26:11;;;;;;;24.58;13.95;;;7.10;97.40;;;;;;5063284;28;20037;-65
2022/01/27 07:28:37;;;;;;;30.40;15.35;;;7.10;97.40;;;;;;5055305;28;20187;-65
2022/01/27 07:31:03;;;;;;;28.80;16.13;;;7.10;97.30;;;;;;5066576;28;20440;-64
2022/01/27 07:33:28;;;;;;;30.85;16.65;;;7.00;97.30;;;;;;5055289;28;20029;-65
2022/01/27 07:35:54;;;;;;;27.67;16.58;;;7.00;97.20;;;;;;5065567;28;20484;-65
2022/01/27 07:38:19;;;;;;;28.67;18.70;;;7.00;97.20;;;;;;5055785;28;20033;-65
2022/01/27 07:40:45;;;;;;;31.20;18.00;;;7.00;97.10;;;;;;5064298;28;20571;-65
2022/01/27 07:43:11;;;;;;;30.92;17.13;;;6.90;97.00;;;;;;5063934;28;20043;-65
2022/01/27 07:45:37;;;;;;;28.92;17.20;;;6.90;96.90;;;;;;5070596;28;20119;-65
2022/01/27 07:48:03;;;;;;;33.28;18.10;;;6.90;97.00;;;;;;5068688;28;20025;-63
2022/01/27 07:50:30;;;;;;;31.98;17.20;;;6.90;96.90;;;;;;5070546;28;20032;-64
2022/01/27 07:52:56;;;;;;;30.65;17.02;;;6.90;96.90;;;;;;5069605;28;20052;-64
2022/01/27 07:55:22;;;;;;;30.75;17.38;;;6.90;97.00;;;;;;5070409;28;20501;-64
2022/01/27 07:57:47;;;;;;;30.38;16.73;;;7.00;97.00;;;;;;5069024;28;20028;-64
2022/01/27 08:00:14;;;;;;;32.13;17.08;;;6.90;96.90;;;;;;5070260;28;20123;-64
2022/01/27 08:02:40;;;;;;;32.17;18.63;;;6.90;96.90;;;;;;5061658;28;20383;-64
2022/01/27 08:05:06;;;;;;;34.00;18.10;;;6.90;96.90;;;;;;5057963;28;20123;-65
2022/01/27 08:07:31;;;;;;;33.17;18.77;;;6.90;96.80;;;;;;5061970;28;20029;-65
2022/01/27 08:09:57;;;;;;;33.58;19.38;;;6.90;96.90;;;;;;5064696;28;20025;-65
2022/01/27 08:12:22;;;;;;;31.85;17.63;;;6.90;96.90;;;;;;5069098;28;20028;-64
2022/01/27 08:14:48;;;;;;;34.80;19.00;;;6.90;96.80;;;;;;5070202;28;20047;-64
2022/01/27 08:17:16;;;;;;;31.17;17.55;;;6.90;96.80;;;;;;5051462;28;20078;-63
2022/01/27 08:19:42;;;;;;;43.45;18.80;;;6.90;96.80;;;;;;5066589;28;20027;-64
2022/01/27 08:22:08;;;;;;;39.80;19.13;;;6.90;96.70;;;;;;5069207;28;20024;-64
2022/01/27 08:24:34;;;;;;;39.85;18.55;;;7.00;96.60;;;;;;5070079;28;20032;-64
2022/01/27 08:27:03;;;;;;;29.73;17.88;;;6.90;96.50;;;;;;5069503;28;20037;-64
2022/01/27 08:29:36;;;;;;;33.13;17.67;;;6.90;96.50;;;;;;5070048;28;20028;-64
2022/01/27 08:32:02;;;;;;;29.60;17.35;;;6.90;96.40;;;;;;5067787;28;20484;-64
2022/01/27 08:34:37;;;;;;;32.50;17.58;;;6.90;96.40;;;;;;5069682;28;20402;-64
2022/01/27 08:37:08;;;;;;;32.97;18.15;;;6.90;96.40;;;;;;5057556;28;20067;-63
2022/01/27 08:39:34;;;;;;;31.63;17.95;;;6.80;96.30;;;;;;5069703;28;20024;-65
2022/01/27 08:42:00;;;;;;;31.55;18.83;;;6.80;96.40;;;;;;5067810;28;20038;-64
2022/01/27 08:44:26;;;;;;;36.65;17.17;;;6.90;96.40;;;;;;5069808;28;20036;-63
2022/01/27 08:46:52;;;;;;;33.03;17.92;;;6.90;96.40;;;;;;5071959;28;20383;-63
2022/01/27 08:49:21;;;;;;;29.25;16.42;;;6.80;96.50;;;;;;5075015;28;20096;-63
2022/01/27 08:51:46;;;;;;;34.88;17.65;;;6.90;96.80;;;;;;5077926;28;20058;-63
2022/01/27 08:54:12;;;;;;;32.45;16.75;;;6.90;96.90;;;;;;5059979;28;20447;-63
2022/01/27 08:56:37;;;;;;;31.08;17.00;;;7.00;96.90;;;;;;5058395;28;20039;-63
2022/01/27 08:59:04;;;;;;;30.63;16.45;;;7.00;96.80;;;;;;5072907;28;20086;-64
2022/01/27 09:01:29;;;;;;;32.17;16.92;;;7.00;96.60;;;;;;5068263;28;20048;-64
2022/01/27 09:03:55;;;;;;;29.92;16.65;;;7.00;96.60;;;;;;5057940;28;20366;-64
2022/01/27 09:06:21;;;;;;;28.92;15.77;;;7.00;96.70;;;;;;5056139;28;20378;-64
2022/01/27 09:08:48;;;;;;;31.45;16.58;;;7.00;96.40;;;;;;5071958;28;20108;-64
2022/01/27 09:11:14;;;;;;;28.30;15.43;;;7.00;96.40;;;;;;5072473;28;20052;-64
2022/01/27 09:13:41;;;;;;;31.92;16.05;;;7.00;96.30;;;;;;5059320;28;20384;-64
2022/01/27 09:16:08;;;;;;;28.80;14.88;;;7.00;96.20;;;;;;5065522;28;20033;-64
2022/01/27 09:18:34;;;;;;;27.55;15.68;;;7.00;96.20;;;;;;5062942;28;20024;-63
2022/01/27 09:21:03;;;;;;;26.92;15.52;;;7.10;96.30;;;;;;5071154;28;20066;-63
2022/01/27 09:23:28;;;;;;;25.60;14.52;;;7.10;96.20;;;;;;5073262;28;20029;-63
2022/01/27 09:26:03;;;;;;;26.73;14.57;;;7.10;96.20;;;;;;5065835;28;20352;-63
2022/01/27 09:28:29;;;;;;;26.40;15.45;;;7.10;96.20;;;;;;5058880;28;20035;-64
2022/01/27 09:30:55;;;;;;;27.70;13.95;;;7.10;96.20;;;;;;5065061;28;20111;-64
2022/01/27 09:33:21;;;;;;;24.98;12.77;;;7.10;96.20;;;;;;5058319;28;20064;-65
2022/01/27 09:35:47;;;;;;;28.73;14.35;;;7.10;96.20;;;;;;5054367;28;20048;-64
2022/01/27 09:38:13;;;;;;;22.48;12.77;;;7.10;96.20;;;;;;5070406;28;20012;-64
2022/01/27 09:40:38;;;;;;;21.63;13.00;;;7.20;96.20;;;;;;5072622;28;20029;-66
2022/01/27 09:43:05;;;;;;;24.40;13.60;;;7.20;96.10;;;;;;5062430;28;20036;-64
2022/01/27 09:45:36;;;;;;;23.20;13.25;;;7.20;96.10;;;;;;5060768;28;20147;-65
2022/01/27 09:48:11;;;;;;;24.35;12.80;;;7.20;96.10;;;;;;5070849;28;20472;-64
2022/01/27 09:53:11;;;;;;;21.08;11.63;;;7.20;96.20;;;;;;5071080;28;20075;-64
2022/01/27 09:55:36;;;;;;;25.58;12.40;;;7.20;96.20;;;;;;5071468;28;20037;-64
2022/01/27 09:58:03;;;;;;;20.90;11.45;;;7.20;96.30;;;;;;5065084;28;20187;-64
2022/01/27 10:00:29;;;;;;;23.75;12.95;;;7.30;96.40;;;;;;5056657;28;20254;-65
2022/01/27 10:03:16;;;;;;;22.42;12.27;;;7.30;96.50;;;;;;5067630;28;20062;-64
2022/01/27 10:05:43;;;;;;;23.02;12.38;;;7.30;96.50;;;;;;5060455;28;20039;-63
2022/01/27 10:08:17;;;;;;;20.33;12.00;;;7.30;96.50;;;;;;5059875;28;20052;-65
2022/01/27 10:10:45;;;;;;;22.65;11.65;;;7.30;96.60;;;;;;5057343;28;20440;-64
2022/01/27 10:13:27;;;;;;;20.08;11.85;;;7.40;96.70;;;;;;5070807;28;20032;-64
2022/01/27 10:15:55;;;;;;;24.77;12.20;;;7.30;96.80;;;;;;5066026;28;20031;-64
2022/01/27 10:18:24;;;;;;;25.48;11.63;;;7.40;96.90;;;;;;5068139;28;20029;-63
2022/01/27 10:20:51;;;;;;;25.15;12.52;;;7.30;96.90;;;;;;5072020;28;20108;-63
2022/01/27 10:23:24;;;;;;;22.70;12.85;;;7.20;97.00;;;;;;5053467;28;20025;-64
2022/01/27 10:25:53;;;;;;;20.58;12.30;;;7.30;97.10;;;;;;5057996;28;20024;-65
2022/01/27 10:29:31;;;;;;;24.80;12.85;;;7.20;97.20;;;;;;5055250;28;20017;-64
2022/01/27 10:31:23;;;;;;;26.67;12.80;;;7.20;97.20;;;;;;5059257;28;20428;-64
2022/01/27 10:33:53;;;;;;;23.50;12.27;;;7.20;97.30;;;;;;5050678;28;20179;-64
2022/01/27 10:36:27;;;;;;;23.88;12.43;;;7.20;97.40;;;;;;5056084;28;20037;-64
2022/01/27 10:38:56;;;;;;;23.33;12.25;;;7.20;97.50;;;;;;5069525;28;20429;-62
2022/01/27 10:41:29;;;;;;;24.50;11.48;;;7.20;97.50;;;;;;5070345;28;20133;-63
2022/01/27 10:44:11;;;;;;;26.67;12.13;;;7.20;97.50;;;;;;5070642;28;20393;-64
2022/01/27 10:46:44;;;;;;;24.00;13.05;;;7.10;97.60;;;;;;5053685;28;20099;-65
2022/01/27 10:49:18;;;;;;;25.10;13.55;;;7.20;97.60;;;;;;5070083;28;20436;-65
2022/01/27 10:51:48;;;;;;;29.00;13.65;;;7.20;97.70;;;;;;5066632;28;20085;-64
2022/01/27 10:54:23;;;;;;;30.00;13.77;;;7.20;97.70;;;;;;5066411;28;20415;-64
2022/01/27 10:56:49;;;;;;;27.00;12.23;;;7.20;97.80;;;;;;5067483;28;20025;-65
2022/01/27 10:59:17;;;;;;;23.98;12.85;;;7.20;97.90;;;;;;5070645;28;20370;-65
2022/01/27 11:01:52;;;;;;;31.70;14.18;;;7.30;98.00;;;;;;5060788;28;20040;-65
2022/01/27 11:04:19;;;;;;;29.08;14.38;;;7.20;98.00;;;;;;5062515;28;20390;-64
2022/01/27 11:06:57;;;;;;;25.85;12.50;;;7.30;98.00;;;;;;5038746;28;20032;-64
2022/01/27 11:09:24;;;;;;;30.48;13.85;;;7.20;98.00;;;;;;5059860;28;20123;-64
2022/01/27 11:11:52;;;;;;;23.90;12.82;;;7.30;98.00;;;;;;5065856;28;20020;-64
2022/01/27 11:14:19;;;;;;;34.22;13.15;;;7.30;98.00;;;;;;5055457;28;20102;-64
2022/01/27 11:16:45;;;;;;;23.15;12.27;;;7.30;98.00;;;;;;5059167;28;20035;-64
2022/01/27 11:19:23;;;;;;;24.38;13.13;;;7.30;98.10;;;;;;5058452;28;20028;-64
2022/01/27 11:21:57;;;;;;;26.45;12.63;;;7.30;98.20;;;;;;5037233;28;20108;-64
2022/01/27 11:24:31;;;;;;;26.38;13.70;;;7.30;98.20;;;;;;5064200;28;20552;-64
2022/01/27 11:27:01;;;;;;;29.33;13.55;;;7.40;98.20;;;;;;5058318;28;20035;-64
2022/01/27 11:29:29;;;;;;;96.35;22.45;;;7.40;98.20;;;;;;5053446;28;20472;-64
2022/01/27 11:32:14;;;;;;;135.60;25.55;;;7.40;98.20;;;;;;5056059;28;20032;-64
2022/01/27 11:34:44;;;;;;;;;;;7.40;98.30;;;;;;5057283;28;20063;-64
2022/01/27 11:37:09;;;;;;;86.90;20.63;;;7.40;98.40;;;;;;5068460;28;20321;-64
2022/01/27 11:39:53;;;;;;;50.97;17.58;;;7.30;98.20;;;;;;5064732;28;20025;-64
2022/01/27 11:42:34;;;;;;;40.92;14.15;;;7.30;98.30;;;;;;5069052;28;20028;-63
2022/01/27 11:45:48;;;;;;;29.98;12.45;;;7.30;98.40;;;;;;5051383;28;20031;-63
2022/01/27 11:48:22;;;;;;;26.42;10.98;;;7.40;98.40;;;;;;4969136;28;20509;-64
2022/01/27 11:51:12;;;;;;;27.73;11.38;;;7.30;98.40;;;;;;4965319;28;20031;-64
2022/01/27 11:53:43;;;;;;;25.38;11.43;;;7.30;98.50;;;;;;5035953;28;20481;-64
2022/01/27 11:56:23;;;;;;;34.88;11.27;;;7.30;98.40;;;;;;5065338;28;20048;-64
2022/01/27 11:58:58;;;;;;;22.92;11.68;;;7.30;98.60;;;;;;5069777;28;20031;-64
2022/01/27 12:01:25;;;;;;;19.65;11.63;;;7.30;98.60;;;;;;5066820;28;20056;-64
2022/01/27 12:04:06;;;;;;;20.73;11.23;;;7.40;98.60;;;;;;5061997;28;20081;-64
2022/01/27 12:06:47;;;;;;;21.35;11.85;;;7.30;98.60;;;;;;5059438;28;20031;-64
2022/01/27 12:09:19;;;;;;;22.02;11.75;;;7.40;98.60;;;;;;5061374;28;20032;-64
2022/01/27 12:12:01;;;;;;;27.27;12.20;;;7.30;98.70;;;;;;5054830;28;20071;-63
2022/01/27 12:14:33;;;;;;;22.05;10.75;;;7.30;98.70;;;;;;5064393;28;20056;-63
2022/01/27 12:17:12;;;;;;;28.27;11.82;;;7.30;98.60;;;;;;5056348;28;20071;-63
2022/01/27 12:19:57;;;;;;;24.58;11.68;;;7.30;98.70;;;;;;5061290;28;20036;-64
2022/01/27 12:22:25;;;;;;;;;;;7.30;98.70;;;;;;5062012;28;20068;-63
2022/01/27 12:24:57;;;;;;;40.75;12.77;;;7.30;98.80;;;;;;5067885;28;19913;-63
2022/01/27 12:27:24;;;;;;;48.92;13.90;;;7.20;98.70;;;;;;5060561;28;20041;-63
2022/01/27 12:29:52;;;;;;;22.80;12.23;;;7.20;98.80;;;;;;5061555;28;20031;-63
2022/01/27 12:32:20;;;;;;;21.73;11.63;;;7.20;98.80;;;;;;5068925;28;20028;-63
2022/01/27 12:35:00;;;;;;;23.15;12.20;;;7.20;98.90;;;;;;5070672;28;20068;-63
2022/01/27 12:37:37;;;;;;;20.67;11.63;;;7.20;98.90;;;;;;5069116;28;20035;-63
2022/01/27 12:40:08;;;;;;;21.08;11.02;;;7.20;99.00;;;;;;5070708;28;20039;-63
2022/01/27 12:42:36;;;;;;;22.63;11.48;;;7.20;99.00;;;;;;5062084;28;20106;-62
2022/01/27 12:45:08;;;;;;;25.52;11.70;;;7.20;99.00;;;;;;5055431;28;20033;-62
2022/01/27 12:47:38;;;;;;;21.58;12.02;;;7.20;99.10;;;;;;5059055;28;20025;-63
2022/01/27 12:50:15;;;;;;;21.58;11.48;;;7.20;99.20;;;;;;5056152;28;20475;-63
2022/01/27 12:52:45;;;;;;;20.83;11.40;;;7.30;99.20;;;;;;5060804;28;20020;-63
2022/01/27 12:55:14;;;;;;;19.10;10.32;;;7.30;99.30;;;;;;5062091;28;20033;-64
2022/01/27 12:57:40;;;;;;;19.25;10.70;;;7.30;99.40;;;;;;5059079;28;20032;-63
2022/01/27 13:00:09;;;;;;;19.05;11.30;;;7.30;99.30;;;;;;5063463;28;20463;-63
2022/01/27 13:02:35;;;;;;;21.05;10.80;;;7.30;99.40;;;;;;5057124;28;20542;-63
2022/01/27 13:05:02;;;;;;;23.30;12.32;;;7.30;99.30;;;;;;5057174;28;20116;-63
2022/01/27 13:07:28;;;;;;;17.30;9.98;;;7.40;99.30;;;;;;5060045;28;20107;-62
2022/01/27 13:10:06;;;;;;;21.48;12.73;;;7.40;99.30;;;;;;5055335;28;20507;-63
2022/01/27 13:12:38;;;;;;;18.70;10.05;;;7.40;99.30;;;;;;5054706;28;20033;-64
2022/01/27 13:15:11;;;;;;;23.02;11.50;;;7.40;99.40;;;;;;5058656;28;20582;-62
2022/01/27 13:17:57;;;;;;;20.45;10.68;;;7.40;99.40;;;;;;5053815;28;20099;-63
2022/01/27 13:20:46;;;;;;;19.02;10.30;;;7.40;99.40;;;;;;5045804;28;20033;-63